sensor_id;sensor_type;location;lat;lon;timestamp;P1;durP1;ratioP1;P2;durP2;ratioP2
51082;SDS011;37131;42.694;23.350;2022-11-27T00:02:21;54.30;;;18.42;;
51082;SDS011;37131;42.694;23.350;2022-11-27T00:04:46;47.85;;;17.85;;
51082;SDS011;37131;42.694;23.350;2022-11-27T00:07:12;57.88;;;19.08;;
51082;SDS011;37131;42.694;23.350;2022-11-27T00:09:37;57.10;;;20.55;;
51082;SDS011;37131;42.694;23.350;2022-11-27T00:12:03;60.70;;;20.45;;
51082;SDS011;37131;42.694;23.350;2022-11-27T00:14:28;55.53;;;20.77;;
51082;SDS011;37131;42.694;23.350;2022-11-27T00:16:54;65.47;;;22.70;;
51082;SDS011;37131;42.694;23.350;2022-11-27T00:19:19;62.70;;;22.23;;
51082;SDS011;37131;42.694;23.350;2022-11-27T00:21:45;61.40;;;21.73;;
51082;SDS011;37131;42.694;23.350;2022-11-27T00:24:10;57.70;;;21.17;;
51082;SDS011;37131;42.694;23.350;2022-11-27T00:26:36;67.18;;;22.00;;
51082;SDS011;37131;42.694;23.350;2022-11-27T00:29:01;57.85;;;20.08;;
51082;SDS011;37131;42.694;23.350;2022-11-27T00:31:28;63.47;;;20.90;;
51082;SDS011;37131;42.694;23.350;2022-11-27T00:33:56;67.35;;;23.02;;
51082;SDS011;37131;42.694;23.350;2022-11-27T00:36:23;62.40;;;21.13;;
51082;SDS011;37131;42.694;23.350;2022-11-27T00:38:49;62.45;;;20.35;;
51082;SDS011;37131;42.694;23.350;2022-11-27T00:41:24;57.47;;;20.58;;
51082;SDS011;37131;42.694;23.350;2022-11-27T00:43:52;47.47;;;18.75;;
51082;SDS011;37131;42.694;23.350;2022-11-27T00:46:29;54.92;;;19.00;;
51082;SDS011;37131;42.694;23.350;2022-11-27T00:48:56;50.42;;;18.65;;
51082;SDS011;37131;42.694;23.350;2022-11-27T00:51:23;54.80;;;18.73;;
51082;SDS011;37131;42.694;23.350;2022-11-27T00:53:50;54.00;;;18.98;;
51082;SDS011;37131;42.694;23.350;2022-11-27T00:56:17;57.78;;;19.77;;
51082;SDS011;37131;42.694;23.350;2022-11-27T00:58:45;55.97;;;20.10;;
51082;SDS011;37131;42.694;23.350;2022-11-27T01:01:18;56.03;;;19.73;;
51082;SDS011;37131;42.694;23.350;2022-11-27T01:03:46;47.55;;;17.75;;
51082;SDS011;37131;42.694;23.350;2022-11-27T01:06:11;50.53;;;18.40;;
51082;SDS011;37131;42.694;23.350;2022-11-27T01:08:37;50.25;;;16.77;;
51082;SDS011;37131;42.694;23.350;2022-11-27T01:11:03;42.88;;;16.58;;
51082;SDS011;37131;42.694;23.350;2022-11-27T01:13:30;38.50;;;14.77;;
51082;SDS011;37131;42.694;23.350;2022-11-27T01:15:58;43.65;;;14.63;;
51082;SDS011;37131;42.694;23.350;2022-11-27T01:18:25;39.53;;;15.02;;
51082;SDS011;37131;42.694;23.350;2022-11-27T01:20:51;34.63;;;14.15;;
51082;SDS011;37131;42.694;23.350;2022-11-27T01:23:17;36.75;;;13.70;;
51082;SDS011;37131;42.694;23.350;2022-11-27T01:25:43;31.67;;;12.15;;
51082;SDS011;37131;42.694;23.350;2022-11-27T01:28:09;32.92;;;13.27;;
51082;SDS011;37131;42.694;23.350;2022-11-27T01:30:36;37.97;;;12.63;;
51082;SDS011;37131;42.694;23.350;2022-11-27T01:33:02;39.53;;;12.15;;
51082;SDS011;37131;42.694;23.350;2022-11-27T01:35:27;29.08;;;10.55;;
51082;SDS011;37131;42.694;23.350;2022-11-27T01:37:52;29.30;;;10.63;;
51082;SDS011;37131;42.694;23.350;2022-11-27T01:40:18;31.85;;;10.00;;
51082;SDS011;37131;42.694;23.350;2022-11-27T01:42:43;24.38;;;9.88;;
51082;SDS011;37131;42.694;23.350;2022-11-27T01:45:09;30.80;;;11.73;;
51082;SDS011;37131;42.694;23.350;2022-11-27T01:47:43;35.78;;;12.32;;
51082;SDS011;37131;42.694;23.350;2022-11-27T01:50:16;28.45;;;11.00;;
51082;SDS011;37131;42.694;23.350;2022-11-27T01:52:47;28.40;;;10.82;;
51082;SDS011;37131;42.694;23.350;2022-11-27T01:55:17;32.20;;;10.90;;
51082;SDS011;37131;42.694;23.350;2022-11-27T01:57:51;28.95;;;10.32;;
51082;SDS011;37131;42.694;23.350;2022-11-27T02:00:20;35.78;;;11.65;;
51082;SDS011;37131;42.694;23.350;2022-11-27T02:02:47;30.98;;;11.55;;
51082;SDS011;37131;42.694;23.350;2022-11-27T02:05:14;31.98;;;11.88;;
51082;SDS011;37131;42.694;23.350;2022-11-27T02:07:44;35.03;;;11.05;;
51082;SDS011;37131;42.694;23.350;2022-11-27T02:10:10;27.65;;;10.45;;
51082;SDS011;37131;42.694;23.350;2022-11-27T02:15:18;29.75;;;10.75;;
51082;SDS011;37131;42.694;23.350;2022-11-27T02:21:05;33.83;;;11.55;;
51082;SDS011;37131;42.694;23.350;2022-11-27T02:31:32;32.17;;;11.50;;
51082;SDS011;37131;42.694;23.350;2022-11-27T02:34:48;30.77;;;11.80;;
51082;SDS011;37131;42.694;23.350;2022-11-27T02:36:57;31.52;;;9.90;;
51082;SDS011;37131;42.694;23.350;2022-11-27T02:39:41;29.63;;;10.43;;
51082;SDS011;37131;42.694;23.350;2022-11-27T02:42:15;29.13;;;10.40;;
51082;SDS011;37131;42.694;23.350;2022-11-27T02:44:45;28.08;;;9.77;;
51082;SDS011;37131;42.694;23.350;2022-11-27T02:47:16;32.33;;;10.95;;
51082;SDS011;37131;42.694;23.350;2022-11-27T02:49:43;32.30;;;10.77;;
51082;SDS011;37131;42.694;23.350;2022-11-27T02:52:10;29.75;;;10.77;;
51082;SDS011;37131;42.694;23.350;2022-11-27T02:54:39;33.20;;;10.43;;
51082;SDS011;37131;42.694;23.350;2022-11-27T02:57:07;29.00;;;10.00;;
51082;SDS011;37131;42.694;23.350;2022-11-27T02:59:34;32.05;;;10.57;;
51082;SDS011;37131;42.694;23.350;2022-11-27T03:02:04;35.25;;;11.73;;
51082;SDS011;37131;42.694;23.350;2022-11-27T03:04:36;34.15;;;10.70;;
51082;SDS011;37131;42.694;23.350;2022-11-27T03:07:08;32.67;;;11.10;;
51082;SDS011;37131;42.694;23.350;2022-11-27T03:09:56;30.58;;;10.88;;
51082;SDS011;37131;42.694;23.350;2022-11-27T03:12:27;32.53;;;11.30;;
51082;SDS011;37131;42.694;23.350;2022-11-27T03:14:52;30.83;;;11.25;;
51082;SDS011;37131;42.694;23.350;2022-11-27T03:20:25;39.53;;;11.85;;
51082;SDS011;37131;42.694;23.350;2022-11-27T03:22:55;31.45;;;11.02;;
51082;SDS011;37131;42.694;23.350;2022-11-27T03:25:21;31.02;;;11.30;;
51082;SDS011;37131;42.694;23.350;2022-11-27T03:27:49;27.42;;;10.82;;
51082;SDS011;37131;42.694;23.350;2022-11-27T03:30:26;37.65;;;11.32;;
51082;SDS011;37131;42.694;23.350;2022-11-27T03:32:52;33.80;;;11.02;;
51082;SDS011;37131;42.694;23.350;2022-11-27T03:35:18;33.58;;;11.70;;
51082;SDS011;37131;42.694;23.350;2022-11-27T03:37:47;33.08;;;12.18;;
51082;SDS011;37131;42.694;23.350;2022-11-27T03:40:12;33.22;;;12.63;;
51082;SDS011;37131;42.694;23.350;2022-11-27T03:42:55;33.33;;;12.13;;
51082;SDS011;37131;42.694;23.350;2022-11-27T03:45:36;30.33;;;11.05;;
51082;SDS011;37131;42.694;23.350;2022-11-27T03:48:17;32.92;;;11.80;;
51082;SDS011;37131;42.694;23.350;2022-11-27T03:56:31;33.15;;;12.27;;
51082;SDS011;37131;42.694;23.350;2022-11-27T03:59:03;30.80;;;9.63;;
51082;SDS011;37131;42.694;23.350;2022-11-27T04:01:37;29.73;;;10.27;;
51082;SDS011;37131;42.694;23.350;2022-11-27T04:04:03;28.70;;;10.77;;
51082;SDS011;37131;42.694;23.350;2022-11-27T04:06:29;27.20;;;11.45;;
51082;SDS011;37131;42.694;23.350;2022-11-27T04:08:55;28.13;;;11.02;;
51082;SDS011;37131;42.694;23.350;2022-11-27T04:11:21;28.42;;;10.93;;
51082;SDS011;37131;42.694;23.350;2022-11-27T04:13:47;26.40;;;10.00;;
51082;SDS011;37131;42.694;23.350;2022-11-27T04:16:12;28.70;;;10.93;;
51082;SDS011;37131;42.694;23.350;2022-11-27T04:18:37;30.98;;;9.95;;
51082;SDS011;37131;42.694;23.350;2022-11-27T04:21:03;32.38;;;10.75;;
51082;SDS011;37131;42.694;23.350;2022-11-27T04:23:28;25.10;;;10.18;;
51082;SDS011;37131;42.694;23.350;2022-11-27T04:25:54;29.00;;;10.50;;
51082;SDS011;37131;42.694;23.350;2022-11-27T04:28:19;24.95;;;9.70;;
51082;SDS011;37131;42.694;23.350;2022-11-27T04:30:49;28.00;;;10.55;;
51082;SDS011;37131;42.694;23.350;2022-11-27T04:33:16;27.80;;;10.60;;
51082;SDS011;37131;42.694;23.350;2022-11-27T04:35:41;27.95;;;11.02;;
51082;SDS011;37131;42.694;23.350;2022-11-27T04:38:07;26.73;;;9.98;;
51082;SDS011;37131;42.694;23.350;2022-11-27T04:40:32;32.38;;;10.38;;
51082;SDS011;37131;42.694;23.350;2022-11-27T04:42:58;27.85;;;11.13;;
51082;SDS011;37131;42.694;23.350;2022-11-27T04:45:23;24.58;;;9.55;;
51082;SDS011;37131;42.694;23.350;2022-11-27T04:47:48;30.75;;;9.82;;
51082;SDS011;37131;42.694;23.350;2022-11-27T04:50:14;29.33;;;9.60;;
51082;SDS011;37131;42.694;23.350;2022-11-27T04:52:39;25.65;;;9.50;;
51082;SDS011;37131;42.694;23.350;2022-11-27T04:55:05;30.15;;;9.82;;
51082;SDS011;37131;42.694;23.350;2022-11-27T04:57:31;26.17;;;9.38;;
51082;SDS011;37131;42.694;23.350;2022-11-27T04:59:56;25.25;;;9.90;;
51082;SDS011;37131;42.694;23.350;2022-11-27T05:02:22;23.35;;;9.20;;
51082;SDS011;37131;42.694;23.350;2022-11-27T05:04:47;25.63;;;9.68;;
51082;SDS011;37131;42.694;23.350;2022-11-27T05:07:13;26.33;;;10.75;;
51082;SDS011;37131;42.694;23.350;2022-11-27T05:09:38;22.63;;;9.40;;
51082;SDS011;37131;42.694;23.350;2022-11-27T05:12:03;25.55;;;9.35;;
51082;SDS011;37131;42.694;23.350;2022-11-27T05:14:30;23.52;;;9.07;;
51082;SDS011;37131;42.694;23.350;2022-11-27T05:16:56;23.13;;;9.75;;
51082;SDS011;37131;42.694;23.350;2022-11-27T05:19:24;22.40;;;9.25;;
51082;SDS011;37131;42.694;23.350;2022-11-27T05:21:51;24.45;;;9.88;;
51082;SDS011;37131;42.694;23.350;2022-11-27T05:24:18;26.65;;;9.88;;
51082;SDS011;37131;42.694;23.350;2022-11-27T05:26:46;27.85;;;9.98;;
51082;SDS011;37131;42.694;23.350;2022-11-27T05:29:11;26.50;;;9.40;;
51082;SDS011;37131;42.694;23.350;2022-11-27T05:31:37;25.10;;;8.73;;
51082;SDS011;37131;42.694;23.350;2022-11-27T05:34:03;28.40;;;10.23;;
51082;SDS011;37131;42.694;23.350;2022-11-27T05:36:29;22.52;;;9.07;;
51082;SDS011;37131;42.694;23.350;2022-11-27T05:38:55;24.73;;;9.50;;
51082;SDS011;37131;42.694;23.350;2022-11-27T05:41:21;33.15;;;10.50;;
51082;SDS011;37131;42.694;23.350;2022-11-27T05:43:47;20.23;;;8.00;;
51082;SDS011;37131;42.694;23.350;2022-11-27T05:46:13;27.90;;;9.55;;
51082;SDS011;37131;42.694;23.350;2022-11-27T05:48:40;24.67;;;10.15;;
51082;SDS011;37131;42.694;23.350;2022-11-27T05:51:06;23.75;;;8.55;;
51082;SDS011;37131;42.694;23.350;2022-11-27T05:53:31;23.85;;;8.52;;
51082;SDS011;37131;42.694;23.350;2022-11-27T05:56:03;24.77;;;8.38;;
51082;SDS011;37131;42.694;23.350;2022-11-27T05:58:31;25.10;;;9.13;;
51082;SDS011;37131;42.694;23.350;2022-11-27T06:00:57;24.45;;;8.32;;
51082;SDS011;37131;42.694;23.350;2022-11-27T06:03:23;28.17;;;10.40;;
51082;SDS011;37131;42.694;23.350;2022-11-27T06:05:49;24.60;;;9.32;;
51082;SDS011;37131;42.694;23.350;2022-11-27T06:08:15;26.75;;;9.98;;
51082;SDS011;37131;42.694;23.350;2022-11-27T06:10:40;29.45;;;10.93;;
51082;SDS011;37131;42.694;23.350;2022-11-27T06:13:06;31.77;;;10.60;;
51082;SDS011;37131;42.694;23.350;2022-11-27T06:15:31;27.20;;;10.95;;
51082;SDS011;37131;42.694;23.350;2022-11-27T06:17:57;29.75;;;10.30;;
51082;SDS011;37131;42.694;23.350;2022-11-27T06:20:22;30.77;;;11.45;;
51082;SDS011;37131;42.694;23.350;2022-11-27T06:22:48;29.05;;;11.20;;
51082;SDS011;37131;42.694;23.350;2022-11-27T06:25:14;31.90;;;11.90;;
51082;SDS011;37131;42.694;23.350;2022-11-27T06:27:39;33.65;;;11.80;;
51082;SDS011;37131;42.694;23.350;2022-11-27T06:30:05;34.53;;;11.88;;
51082;SDS011;37131;42.694;23.350;2022-11-27T06:32:31;28.63;;;11.85;;
51082;SDS011;37131;42.694;23.350;2022-11-27T06:34:56;31.48;;;11.95;;
51082;SDS011;37131;42.694;23.350;2022-11-27T06:37:22;31.25;;;12.43;;
51082;SDS011;37131;42.694;23.350;2022-11-27T06:39:48;33.78;;;11.35;;
51082;SDS011;37131;42.694;23.350;2022-11-27T06:42:14;29.52;;;10.77;;
51082;SDS011;37131;42.694;23.350;2022-11-27T06:44:39;31.58;;;10.70;;
51082;SDS011;37131;42.694;23.350;2022-11-27T06:47:05;36.50;;;12.18;;
51082;SDS011;37131;42.694;23.350;2022-11-27T06:49:31;28.80;;;10.52;;
51082;SDS011;37131;42.694;23.350;2022-11-27T06:51:56;33.05;;;11.30;;
51082;SDS011;37131;42.694;23.350;2022-11-27T06:54:21;29.60;;;11.75;;
51082;SDS011;37131;42.694;23.350;2022-11-27T06:56:50;36.20;;;12.48;;
51082;SDS011;37131;42.694;23.350;2022-11-27T06:59:16;32.72;;;12.70;;
51082;SDS011;37131;42.694;23.350;2022-11-27T07:01:42;35.92;;;12.75;;
51082;SDS011;37131;42.694;23.350;2022-11-27T07:04:11;35.70;;;12.48;;
51082;SDS011;37131;42.694;23.350;2022-11-27T07:06:38;34.83;;;12.50;;
51082;SDS011;37131;42.694;23.350;2022-11-27T07:09:04;31.02;;;11.38;;
51082;SDS011;37131;42.694;23.350;2022-11-27T07:11:30;32.80;;;11.00;;
51082;SDS011;37131;42.694;23.350;2022-11-27T07:13:57;26.98;;;11.52;;
51082;SDS011;37131;42.694;23.350;2022-11-27T07:16:24;30.05;;;11.30;;
51082;SDS011;37131;42.694;23.350;2022-11-27T07:18:52;31.38;;;11.23;;
51082;SDS011;37131;42.694;23.350;2022-11-27T07:21:18;27.63;;;11.05;;
51082;SDS011;37131;42.694;23.350;2022-11-27T07:23:44;25.13;;;10.73;;
51082;SDS011;37131;42.694;23.350;2022-11-27T07:26:14;31.10;;;11.23;;
51082;SDS011;37131;42.694;23.350;2022-11-27T07:28:42;32.92;;;11.13;;
51082;SDS011;37131;42.694;23.350;2022-11-27T07:31:08;28.02;;;10.52;;
51082;SDS011;37131;42.694;23.350;2022-11-27T07:33:34;32.60;;;11.48;;
51082;SDS011;37131;42.694;23.350;2022-11-27T07:36:21;24.83;;;10.52;;
51082;SDS011;37131;42.694;23.350;2022-11-27T07:38:47;34.70;;;11.48;;
51082;SDS011;37131;42.694;23.350;2022-11-27T07:41:12;34.13;;;12.07;;
51082;SDS011;37131;42.694;23.350;2022-11-27T07:43:39;29.13;;;12.10;;
51082;SDS011;37131;42.694;23.350;2022-11-27T07:46:06;27.80;;;12.13;;
51082;SDS011;37131;42.694;23.350;2022-11-27T07:48:36;33.35;;;11.90;;
51082;SDS011;37131;42.694;23.350;2022-11-27T07:51:04;30.08;;;12.35;;
51082;SDS011;37131;42.694;23.350;2022-11-27T07:53:30;28.00;;;11.20;;
51082;SDS011;37131;42.694;23.350;2022-11-27T07:55:58;36.28;;;12.93;;
51082;SDS011;37131;42.694;23.350;2022-11-27T07:58:24;30.90;;;12.50;;
51082;SDS011;37131;42.694;23.350;2022-11-27T08:00:49;30.55;;;13.40;;
51082;SDS011;37131;42.694;23.350;2022-11-27T08:03:15;33.42;;;13.82;;
51082;SDS011;37131;42.694;23.350;2022-11-27T08:05:41;34.55;;;12.63;;
51082;SDS011;37131;42.694;23.350;2022-11-27T08:08:07;37.30;;;12.98;;
51082;SDS011;37131;42.694;23.350;2022-11-27T08:10:34;37.67;;;14.52;;
51082;SDS011;37131;42.694;23.350;2022-11-27T08:13:00;35.80;;;14.10;;
51082;SDS011;37131;42.694;23.350;2022-11-27T08:15:26;32.85;;;13.65;;
51082;SDS011;37131;42.694;23.350;2022-11-27T08:17:52;32.75;;;14.90;;
51082;SDS011;37131;42.694;23.350;2022-11-27T08:20:17;32.42;;;13.27;;
51082;SDS011;37131;42.694;23.350;2022-11-27T08:22:43;32.92;;;13.85;;
51082;SDS011;37131;42.694;23.350;2022-11-27T08:25:09;31.75;;;12.80;;
51082;SDS011;37131;42.694;23.350;2022-11-27T08:27:35;36.53;;;13.70;;
51082;SDS011;37131;42.694;23.350;2022-11-27T08:30:00;38.72;;;14.48;;
51082;SDS011;37131;42.694;23.350;2022-11-27T08:32:27;30.50;;;12.50;;
51082;SDS011;37131;42.694;23.350;2022-11-27T08:34:52;34.65;;;13.18;;
51082;SDS011;37131;42.694;23.350;2022-11-27T08:37:18;27.33;;;9.77;;
51082;SDS011;37131;42.694;23.350;2022-11-27T08:39:43;39.95;;;14.05;;
51082;SDS011;37131;42.694;23.350;2022-11-27T08:42:09;33.72;;;12.95;;
51082;SDS011;37131;42.694;23.350;2022-11-27T08:44:34;32.80;;;13.27;;
51082;SDS011;37131;42.694;23.350;2022-11-27T08:46:59;28.98;;;10.75;;
51082;SDS011;37131;42.694;23.350;2022-11-27T08:49:25;35.70;;;14.20;;
51082;SDS011;37131;42.694;23.350;2022-11-27T08:51:50;37.13;;;14.25;;
51082;SDS011;37131;42.694;23.350;2022-11-27T08:54:16;36.85;;;14.80;;
51082;SDS011;37131;42.694;23.350;2022-11-27T08:56:41;31.42;;;12.68;;
51082;SDS011;37131;42.694;23.350;2022-11-27T08:59:07;41.80;;;15.18;;
51082;SDS011;37131;42.694;23.350;2022-11-27T09:01:32;45.05;;;15.65;;
51082;SDS011;37131;42.694;23.350;2022-11-27T09:03:57;40.80;;;15.55;;
51082;SDS011;37131;42.694;23.350;2022-11-27T09:06:24;38.35;;;14.10;;
51082;SDS011;37131;42.694;23.350;2022-11-27T09:08:55;29.10;;;11.77;;
51082;SDS011;37131;42.694;23.350;2022-11-27T09:11:22;44.10;;;15.70;;
51082;SDS011;37131;42.694;23.350;2022-11-27T09:13:48;43.30;;;16.40;;
51082;SDS011;37131;42.694;23.350;2022-11-27T09:16:14;41.58;;;16.02;;
51082;SDS011;37131;42.694;23.350;2022-11-27T09:18:44;37.47;;;14.93;;
51082;SDS011;37131;42.694;23.350;2022-11-27T09:21:11;39.88;;;16.60;;
51082;SDS011;37131;42.694;23.350;2022-11-27T09:23:38;43.22;;;17.00;;
51082;SDS011;37131;42.694;23.350;2022-11-27T09:26:05;35.80;;;16.05;;
51082;SDS011;37131;42.694;23.350;2022-11-27T09:28:32;38.50;;;15.15;;
51082;SDS011;37131;42.694;23.350;2022-11-27T09:30:59;38.53;;;14.38;;
51082;SDS011;37131;42.694;23.350;2022-11-27T09:33:26;38.47;;;14.98;;
51082;SDS011;37131;42.694;23.350;2022-11-27T09:35:53;43.13;;;16.60;;
51082;SDS011;37131;42.694;23.350;2022-11-27T09:38:19;41.63;;;15.25;;
51082;SDS011;37131;42.694;23.350;2022-11-27T09:40:46;44.22;;;17.13;;
51082;SDS011;37131;42.694;23.350;2022-11-27T09:43:13;40.45;;;17.27;;
51082;SDS011;37131;42.694;23.350;2022-11-27T09:45:45;41.35;;;16.33;;
51082;SDS011;37131;42.694;23.350;2022-11-27T09:48:17;41.28;;;16.55;;
51082;SDS011;37131;42.694;23.350;2022-11-27T09:50:52;41.17;;;15.63;;
51082;SDS011;37131;42.694;23.350;2022-11-27T09:53:27;44.33;;;16.90;;
51082;SDS011;37131;42.694;23.350;2022-11-27T09:56:10;34.58;;;13.57;;
51082;SDS011;37131;42.694;23.350;2022-11-27T09:58:40;38.35;;;15.82;;
51082;SDS011;37131;42.694;23.350;2022-11-27T10:03:36;49.08;;;16.85;;
51082;SDS011;37131;42.694;23.350;2022-11-27T10:12:14;45.40;;;16.70;;
51082;SDS011;37131;42.694;23.350;2022-11-27T10:17:18;43.80;;;16.30;;
51082;SDS011;37131;42.694;23.350;2022-11-27T10:23:04;36.13;;;14.50;;
51082;SDS011;37131;42.694;23.350;2022-11-27T10:25:49;35.45;;;13.52;;
51082;SDS011;37131;42.694;23.350;2022-11-27T10:30:54;36.28;;;14.70;;
51082;SDS011;37131;42.694;23.350;2022-11-27T10:33:30;35.20;;;13.38;;
51082;SDS011;37131;42.694;23.350;2022-11-27T10:36:07;31.92;;;13.73;;
51082;SDS011;37131;42.694;23.350;2022-11-27T10:38:38;29.08;;;12.10;;
51082;SDS011;37131;42.694;23.350;2022-11-27T10:41:22;33.58;;;12.35;;
51082;SDS011;37131;42.694;23.350;2022-11-27T10:43:53;27.55;;;11.27;;
51082;SDS011;37131;42.694;23.350;2022-11-27T10:46:23;32.42;;;11.43;;
51082;SDS011;37131;42.694;23.350;2022-11-27T10:48:56;28.00;;;10.98;;
51082;SDS011;37131;42.694;23.350;2022-11-27T10:51:28;23.23;;;10.48;;
51082;SDS011;37131;42.694;23.350;2022-11-27T10:53:57;24.23;;;9.88;;
51082;SDS011;37131;42.694;23.350;2022-11-27T10:59:36;22.25;;;8.88;;
51082;SDS011;37131;42.694;23.350;2022-11-27T11:02:23;21.63;;;8.82;;
51082;SDS011;37131;42.694;23.350;2022-11-27T11:04:53;28.83;;;11.23;;
51082;SDS011;37131;42.694;23.350;2022-11-27T11:07:24;34.95;;;11.65;;
51082;SDS011;37131;42.694;23.350;2022-11-27T11:09:51;26.90;;;11.30;;
51082;SDS011;37131;42.694;23.350;2022-11-27T11:12:18;24.30;;;9.82;;
51082;SDS011;37131;42.694;23.350;2022-11-27T11:14:52;28.77;;;10.60;;
51082;SDS011;37131;42.694;23.350;2022-11-27T11:17:23;24.52;;;9.32;;
51082;SDS011;37131;42.694;23.350;2022-11-27T11:19:58;25.88;;;10.23;;
51082;SDS011;37131;42.694;23.350;2022-11-27T11:22:24;26.00;;;11.00;;
51082;SDS011;37131;42.694;23.350;2022-11-27T11:24:52;27.17;;;11.07;;
51082;SDS011;37131;42.694;23.350;2022-11-27T11:27:28;23.10;;;9.88;;
51082;SDS011;37131;42.694;23.350;2022-11-27T11:29:59;25.95;;;11.02;;
51082;SDS011;37131;42.694;23.350;2022-11-27T11:32:37;24.52;;;11.40;;
51082;SDS011;37131;42.694;23.350;2022-11-27T11:35:08;27.30;;;11.57;;
51082;SDS011;37131;42.694;23.350;2022-11-27T11:37:52;23.67;;;10.30;;
51082;SDS011;37131;42.694;23.350;2022-11-27T11:42:49;24.25;;;10.15;;
51082;SDS011;37131;42.694;23.350;2022-11-27T11:45:18;25.77;;;10.88;;
51082;SDS011;37131;42.694;23.350;2022-11-27T11:47:48;22.95;;;9.90;;
51082;SDS011;37131;42.694;23.350;2022-11-27T11:50:41;25.50;;;10.27;;
51082;SDS011;37131;42.694;23.350;2022-11-27T11:55:45;27.95;;;11.30;;
51082;SDS011;37131;42.694;23.350;2022-11-27T12:01:33;21.85;;;10.07;;
51082;SDS011;37131;42.694;23.350;2022-11-27T12:06:53;27.73;;;9.50;;
51082;SDS011;37131;42.694;23.350;2022-11-27T12:12:12;20.55;;;9.32;;
51082;SDS011;37131;42.694;23.350;2022-11-27T12:17:44;24.75;;;9.98;;
51082;SDS011;37131;42.694;23.350;2022-11-27T12:31:40;27.02;;;10.27;;
51082;SDS011;37131;42.694;23.350;2022-11-27T12:34:11;26.88;;;9.65;;
51082;SDS011;37131;42.694;23.350;2022-11-27T12:41:59;26.63;;;9.90;;
51082;SDS011;37131;42.694;23.350;2022-11-27T12:49:51;22.77;;;10.27;;
51082;SDS011;37131;42.694;23.350;2022-11-27T12:52:23;22.50;;;9.82;;
51082;SDS011;37131;42.694;23.350;2022-11-27T12:55:03;28.77;;;10.63;;
51082;SDS011;37131;42.694;23.350;2022-11-27T12:57:40;23.77;;;9.95;;
51082;SDS011;37131;42.694;23.350;2022-11-27T13:00:14;24.52;;;10.70;;
51082;SDS011;37131;42.694;23.350;2022-11-27T13:03:33;31.67;;;11.95;;
51082;SDS011;37131;42.694;23.350;2022-11-27T13:11:09;27.60;;;10.73;;
51082;SDS011;37131;42.694;23.350;2022-11-27T13:13:48;26.10;;;10.65;;
51082;SDS011;37131;42.694;23.350;2022-11-27T13:16:34;23.92;;;9.85;;
51082;SDS011;37131;42.694;23.350;2022-11-27T13:22:13;21.45;;;9.00;;
51082;SDS011;37131;42.694;23.350;2022-11-27T13:24:45;24.08;;;9.40;;
51082;SDS011;37131;42.694;23.350;2022-11-27T13:29:52;23.33;;;9.07;;
51082;SDS011;37131;42.694;23.350;2022-11-27T13:32:25;21.47;;;10.07;;
51082;SDS011;37131;42.694;23.350;2022-11-27T13:34:56;23.27;;;10.33;;
51082;SDS011;37131;42.694;23.350;2022-11-27T13:37:32;30.63;;;10.10;;
51082;SDS011;37131;42.694;23.350;2022-11-27T13:40:35;28.38;;;11.00;;
51082;SDS011;37131;42.694;23.350;2022-11-27T13:42:58;26.15;;;10.65;;
51082;SDS011;37131;42.694;23.350;2022-11-27T13:45:39;24.27;;;10.32;;
51082;SDS011;37131;42.694;23.350;2022-11-27T13:48:18;28.50;;;9.13;;
51082;SDS011;37131;42.694;23.350;2022-11-27T13:50:52;20.83;;;8.70;;
51082;SDS011;37131;42.694;23.350;2022-11-27T13:53:18;20.17;;;8.55;;
51082;SDS011;37131;42.694;23.350;2022-11-27T13:55:54;21.48;;;9.18;;
51082;SDS011;37131;42.694;23.350;2022-11-27T14:00:57;18.88;;;7.82;;
51082;SDS011;37131;42.694;23.350;2022-11-27T14:03:27;14.48;;;5.80;;
51082;SDS011;37131;42.694;23.350;2022-11-27T14:05:55;19.73;;;7.22;;
51082;SDS011;37131;42.694;23.350;2022-11-27T14:08:29;17.60;;;7.00;;
51082;SDS011;37131;42.694;23.350;2022-11-27T14:11:06;13.70;;;5.75;;
51082;SDS011;37131;42.694;23.350;2022-11-27T14:13:42;14.65;;;5.25;;
51082;SDS011;37131;42.694;23.350;2022-11-27T14:21:54;14.80;;;5.32;;
51082;SDS011;37131;42.694;23.350;2022-11-27T14:24:41;14.43;;;5.53;;
51082;SDS011;37131;42.694;23.350;2022-11-27T14:27:17;15.35;;;5.75;;
51082;SDS011;37131;42.694;23.350;2022-11-27T14:29:44;12.50;;;4.18;;
51082;SDS011;37131;42.694;23.350;2022-11-27T14:32:11;11.18;;;4.70;;
51082;SDS011;37131;42.694;23.350;2022-11-27T14:34:38;13.02;;;4.88;;
51082;SDS011;37131;42.694;23.350;2022-11-27T14:37:04;10.80;;;4.93;;
51082;SDS011;37131;42.694;23.350;2022-11-27T14:39:31;14.13;;;4.40;;
51082;SDS011;37131;42.694;23.350;2022-11-27T14:42:02;10.85;;;4.57;;
51082;SDS011;37131;42.694;23.350;2022-11-27T14:44:30;16.65;;;6.88;;
51082;SDS011;37131;42.694;23.350;2022-11-27T14:46:58;13.68;;;5.75;;
51082;SDS011;37131;42.694;23.350;2022-11-27T14:49:26;22.60;;;9.88;;
